Time;durP1;ratioP1;P1;durP2;ratioP2;P2;SDS_P1;SDS_P2;PMS_P1;PMS_P2;Temp;Humidity;BMP_temperature;BMP_pressure;BME280_temperature;BME280_humidity;BME280_pressure;Samples;Min_cycle;Max_cycle;Signal;HPM_P1;HPM_P2
2023/04/16 00:00:57;;;;;;;7.10;3.50;;;13.20;56.30;;;13.30;43.08;94438.56;5082817;28;20849;-58
2023/04/16 00:03:24;;;;;;;8.97;3.30;;;13.10;56.10;;;13.27;42.96;94431.78;5089777;28;20501;-58
2023/04/16 00:05:54;;;;;;;4.90;2.50;;;13.10;56.10;;;13.24;43.20;94434.75;5098318;28;20449;-57
2023/04/16 00:08:24;;;;;;;5.27;2.80;;;13.10;56.30;;;13.18;43.40;94433.59;5099642;28;20464;-59
2023/04/16 00:10:52;;;;;;;6.77;2.50;;;13.00;56.40;;;13.14;43.12;94432.28;5099013;28;20473;-60
2023/04/16 00:13:20;;;;;;;11.23;3.33;;;13.00;56.30;;;13.08;43.16;94427.69;5103533;28;20561;-59
2023/04/16 00:15:47;;;;;;;5.97;2.80;;;12.90;56.20;;;13.03;43.22;94428.19;5104633;28;20488;-60
2023/04/16 00:18:15;;;;;;;6.73;2.77;;;12.90;56.10;;;13.01;43.32;94429.31;5100487;28;20515;-57
2023/04/16 00:20:42;;;;;;;4.70;2.40;;;12.80;56.20;;;12.97;43.25;94431.47;5085386;28;20530;-56
2023/04/16 00:23:09;;;;;;;4.63;3.13;;;12.80;56.30;;;12.95;43.28;94425.53;5096569;28;20481;-58
2023/04/16 00:25:39;;;;;;;7.30;3.40;;;12.80;56.50;;;12.92;43.27;94425.88;5097519;28;20452;-59
2023/04/16 00:28:06;;;;;;;5.40;3.50;;;12.70;56.30;;;12.90;43.64;94426.03;5093524;28;20497;-58
2023/04/16 00:30:35;;;;;;;4.20;3.00;;;12.80;56.60;;;12.89;43.50;94423.56;5101432;28;20455;-60
2023/04/16 00:33:03;;;;;;;5.60;3.23;;;12.70;56.50;;;12.86;43.57;94423.91;5105699;28;20477;-58
2023/04/16 00:35:31;;;;;;;11.13;3.30;;;12.70;56.70;;;12.83;43.34;94421.59;5095271;28;20482;-58
2023/04/16 00:37:58;;;;;;;6.07;3.60;;;12.70;56.60;;;12.79;43.60;94422.91;5092531;28;20461;-57
2023/04/16 00:40:28;;;;;;;9.47;3.63;;;12.60;56.80;;;12.75;43.84;94419.78;5096161;28;20555;-60
2023/04/16 00:42:57;;;;;;;5.77;3.83;;;12.60;57.50;;;12.71;43.82;94427.16;5093466;28;20568;-60
2023/04/16 00:45:24;;;;;;;12.20;4.50;;;12.60;57.10;;;12.67;43.76;94414.47;5089348;28;20451;-60
2023/04/16 00:47:51;;;;;;;9.90;4.30;;;12.50;57.30;;;12.64;44.08;94422.72;5095418;28;20535;-61
2023/04/16 00:50:19;;;;;;;9.47;4.83;;;12.50;58.10;;;12.58;44.27;94421.56;5093344;28;20455;-62
2023/04/16 00:52:47;;;;;;;9.13;4.73;;;12.40;57.60;;;12.54;44.63;94420.22;5093668;28;20959;-61
2023/04/16 00:55:17;;;;;;;8.93;5.03;;;12.40;58.00;;;12.50;45.02;94421.53;5086813;28;20490;-60
2023/04/16 00:57:44;;;;;;;5.37;3.00;;;12.40;58.20;;;12.45;44.86;94415.94;5097676;28;20477;-60
2023/04/16 01:00:15;;;;;;;6.23;3.30;;;12.30;58.20;;;12.39;44.95;94417.41;5096758;28;20490;-58
2023/04/16 01:02:42;;;;;;;6.07;3.57;;;12.20;58.20;;;12.34;45.03;94423.16;5092975;28;20469;-57
2023/04/16 01:05:10;;;;;;;7.20;3.80;;;12.20;58.50;;;12.31;45.22;94418.19;5092192;28;20456;-60
2023/04/16 01:07:37;;;;;;;6.87;3.90;;;12.10;58.70;;;12.26;45.39;94409.97;5098788;28;20855;-57
2023/04/16 01:10:05;;;;;;;6.43;3.60;;;12.10;58.70;;;12.22;45.63;94410.44;5088295;28;20466;-62
2023/04/16 01:12:33;;;;;;;5.33;3.13;;;12.10;58.70;;;12.15;45.37;94411.09;5096639;28;20464;-60
2023/04/16 01:15:00;;;;;;;5.73;3.00;;;12.00;58.60;;;12.11;45.89;94409.75;5094029;28;21033;-56
2023/04/16 01:17:29;;;;;;;7.93;3.00;;;12.00;59.10;;;12.07;45.89;94407.59;5090017;28;20501;-59
2023/04/16 01:19:59;;;;;;;5.80;3.13;;;12.00;59.20;;;12.02;45.73;94410.72;5096361;28;20458;-61
2023/04/16 01:22:28;;;;;;;7.03;3.53;;;11.90;59.30;;;11.97;45.78;94402.47;5090375;28;21422;-60
2023/04/16 01:24:55;;;;;;;10.83;3.20;;;11.80;59.30;;;11.94;45.73;94408.06;5094876;28;20461;-58
2023/04/16 01:27:23;;;;;;;5.53;3.17;;;11.80;59.40;;;11.90;46.05;94411.94;5080892;28;20485;-60
2023/04/16 01:29:50;;;;;;;7.43;4.10;;;11.80;59.70;;;11.88;46.33;94406.03;5095959;28;20461;-56
2023/04/16 01:32:18;;;;;;;2.90;2.63;;;11.70;59.60;;;11.84;46.36;94403.72;5091823;28;20474;-59
2023/04/16 01:34:45;;;;;;;5.43;3.50;;;11.70;59.80;;;11.82;46.28;94405.69;5094679;28;20464;-60
2023/04/16 01:37:12;;;;;;;6.60;3.20;;;11.70;59.90;;;11.80;46.42;94402.41;5090711;28;20463;-58
2023/04/16 01:39:41;;;;;;;6.53;3.10;;;11.70;60.50;;;11.78;46.48;94396.44;5095613;28;20453;-60
2023/04/16 01:42:08;;;;;;;7.37;3.87;;;11.70;60.20;;;11.76;46.62;94398.41;5090320;28;20469;-57
2023/04/16 01:44:36;;;;;;;6.10;2.90;;;11.60;60.60;;;11.76;46.73;94400.25;5090940;28;20472;-57
2023/04/16 01:47:03;;;;;;;8.17;3.20;;;11.60;60.70;;;11.73;46.91;94401.38;5090385;28;20577;-57
2023/04/16 01:49:31;;;;;;;6.70;3.67;;;11.60;61.00;;;11.71;46.75;94395.44;5088743;28;20488;-61
2023/04/16 01:51:58;;;;;;;8.03;2.93;;;11.60;60.90;;;11.72;47.09;94394.44;5090786;28;20504;-59
2023/04/16 01:54:25;;;;;;;3.60;3.23;;;11.60;61.40;;;11.73;47.16;94384.75;5084818;28;20463;-59
2023/04/16 01:56:54;;;;;;;5.93;3.37;;;11.60;61.80;;;11.72;47.49;94389.16;5087541;28;20492;-57
2023/04/16 01:59:21;;;;;;;6.53;3.27;;;11.60;61.80;;;11.72;47.40;94389.16;5078684;28;20465;-60
2023/04/16 02:01:49;;;;;;;4.60;3.17;;;11.60;61.90;;;11.71;47.37;94377.00;5087623;28;20539;-58
2023/04/16 02:04:16;;;;;;;4.27;3.80;;;11.60;61.90;;;11.70;47.50;94385.06;5087486;28;20545;-57
2023/04/16 02:06:43;;;;;;;6.83;4.57;;;11.60;62.30;;;11.70;47.59;94382.44;5091544;28;20478;-59
2023/04/16 02:09:11;;;;;;;7.43;2.90;;;11.60;62.50;;;11.68;47.57;94385.22;5089739;28;20992;-57
2023/04/16 02:11:38;;;;;;;11.30;3.20;;;11.60;62.40;;;11.67;47.57;94388.84;5088339;28;21171;-59
2023/04/16 02:14:07;;;;;;;5.63;3.00;;;11.50;62.40;;;11.66;47.68;94385.38;5089701;28;20462;-57
2023/04/16 02:16:35;;;;;;;5.90;3.20;;;11.50;62.60;;;11.66;48.05;94380.13;5094331;28;20546;-60
2023/04/16 02:19:03;;;;;;;4.40;3.30;;;11.50;63.00;;;11.65;47.93;94383.72;5083474;28;20454;-60
2023/04/16 02:21:30;;;;;;;4.90;3.67;;;11.50;62.90;;;11.65;47.98;94383.72;5088833;28;20484;-56
2023/04/16 02:23:58;;;;;;;3.23;2.60;;;11.50;63.10;;;11.64;47.59;94383.88;5092455;28;20544;-61
2023/04/16 02:26:25;;;;;;;7.60;3.30;;;11.50;62.70;;;11.61;47.88;94382.38;5093809;28;20468;-58
2023/04/16 02:28:53;;;;;;;7.30;3.33;;;11.50;63.20;;;11.61;48.10;94381.56;5087252;28;21988;-58
2023/04/16 02:31:22;;;;;;;6.90;3.60;;;11.50;63.40;;;11.59;48.41;94376.44;5096064;28;20446;-60
2023/04/16 02:33:49;;;;;;;2.63;2.43;;;11.50;63.90;;;11.58;48.34;94374.78;5089893;28;21049;-59
2023/04/16 02:36:16;;;;;;;7.37;3.50;;;11.50;63.90;;;11.59;48.51;94383.53;5091409;28;20568;-60
2023/04/16 02:38:44;;;;;;;7.23;3.23;;;11.50;64.30;;;11.60;48.47;94379.91;5095671;28;20458;-60
2023/04/16 02:41:12;;;;;;;5.43;3.20;;;11.50;64.30;;;11.60;48.31;94374.63;5087354;28;20458;-58
2023/04/16 02:43:39;;;;;;;5.20;2.77;;;11.50;64.30;;;11.60;48.54;94375.47;5087422;28;20457;-59
2023/04/16 02:46:07;;;;;;;7.20;3.33;;;11.50;64.30;;;11.62;48.51;94370.06;5093927;28;20449;-59
2023/04/16 02:48:35;;;;;;;5.03;2.53;;;11.50;64.30;;;11.63;48.88;94376.94;5092192;28;20477;-59
2023/04/16 02:51:03;;;;;;;3.60;3.00;;;11.50;65.00;;;11.64;48.94;94374.16;5087375;28;20549;-58
2023/04/16 02:53:30;;;;;;;6.40;3.57;;;11.50;65.30;;;11.67;49.34;94380.94;5089162;28;20516;-60
2023/04/16 02:55:57;;;;;;;5.60;3.60;;;11.50;65.80;;;11.66;49.10;94374.84;5087602;28;20492;-60
2023/04/16 02:58:26;;;;;;;2.93;2.60;;;11.50;65.60;;;11.68;48.90;94377.31;5091699;28;20908;-61
2023/04/16 03:00:53;;;;;;;4.77;3.23;;;11.60;65.90;;;11.68;49.22;94376.47;5090384;28;20461;-59
2023/04/16 03:03:21;;;;;;;12.57;4.00;;;11.50;65.90;;;11.69;49.18;94368.41;5090041;28;20481;-57
2023/04/16 03:05:49;;;;;;;9.03;2.90;;;11.50;65.90;;;11.69;49.23;94375.50;5081917;28;20786;-57
2023/04/16 03:08:17;;;;;;;6.13;3.87;;;11.50;66.00;;;11.68;49.48;94372.06;5089547;28;20485;-58
2023/04/16 03:10:44;;;;;;;11.97;4.00;;;11.60;66.30;;;11.68;49.29;94374.69;5088082;28;20462;-56
2023/04/16 03:13:12;;;;;;;9.93;4.00;;;11.50;65.90;;;11.66;49.24;94374.00;5079461;28;20477;-61
2023/04/16 03:15:39;;;;;;;10.70;4.60;;;11.50;66.20;;;11.65;49.13;94377.63;5089055;28;20494;-57
2023/04/16 03:18:07;;;;;;;10.40;5.13;;;11.50;66.30;;;11.63;49.35;94375.16;5090212;28;20515;-59
2023/04/16 03:20:34;;;;;;;15.57;5.07;;;11.50;66.30;;;11.61;49.29;94381.56;5075708;28;20451;-57
2023/04/16 03:23:03;;;;;;;14.07;5.27;;;11.50;66.70;;;11.60;49.51;94379.91;5088873;28;20478;-57
2023/04/16 03:25:30;;;;;;;11.83;4.97;;;11.50;66.70;;;11.59;49.33;94389.63;5091017;28;20469;-62
2023/04/16 03:27:58;;;;;;;11.70;5.33;;;11.50;66.70;;;11.59;49.17;94386.16;5090881;28;21003;-60
2023/04/16 03:30:25;;;;;;;17.30;4.93;;;11.50;66.80;;;11.59;49.51;94384.34;5089587;28;20442;-61
2023/04/16 03:32:52;;;;;;;15.47;5.40;;;11.50;67.10;;;11.59;49.50;94384.34;5089006;28;20466;-58
2023/04/16 03:35:20;;;;;;;17.07;5.77;;;11.50;67.20;;;11.60;49.76;94388.66;5090737;28;20477;-57
2023/04/16 03:37:48;;;;;;;12.17;5.53;;;11.50;67.40;;;11.62;49.48;94388.50;5092332;28;20472;-60
2023/04/16 03:40:18;;;;;;;9.70;4.40;;;11.50;67.40;;;11.62;49.71;94394.56;5090625;28;20538;-59
2023/04/16 03:42:45;;;;;;;19.83;5.97;;;11.50;67.60;;;11.61;49.68;94389.47;5084982;28;20488;-59
2023/04/16 03:45:13;;;;;;;17.00;5.80;;;11.50;67.60;;;11.60;49.55;94400.97;5089737;28;20469;-60
2023/04/16 03:47:41;;;;;;;5.30;3.93;;;11.50;67.50;;;11.60;49.82;94395.69;5093565;28;20470;-59
2023/04/16 03:50:10;;;;;;;15.30;4.23;;;11.50;68.00;;;11.60;49.80;94395.69;5083978;28;20941;-59
2023/04/16 03:52:37;;;;;;;9.03;3.97;;;11.50;68.20;;;11.59;49.99;94394.06;5090429;28;20866;-59
2023/04/16 03:55:06;;;;;;;6.90;4.00;;;11.50;68.50;;;11.58;49.96;94393.22;5084788;28;20457;-58
2023/04/16 03:57:35;;;;;;;7.73;4.30;;;11.50;68.70;;;11.58;50.24;94392.41;5092640;28;20608;-60
2023/04/16 04:00:02;;;;;;;10.20;4.63;;;11.50;68.70;;;11.57;50.05;94396.88;5079788;28;20461;-57
2023/04/16 04:02:29;;;;;;;8.87;3.53;;;11.50;69.00;;;11.57;50.21;94393.38;5088973;28;20489;-59
2023/04/16 04:04:57;;;;;;;6.60;4.10;;;11.40;68.90;;;11.56;50.09;94400.47;5081013;28;20470;-57
2023/04/16 04:07:24;;;;;;;7.23;3.90;;;11.40;68.80;;;11.56;50.35;94397.03;5089908;28;20988;-60
2023/04/16 04:09:51;;;;;;;7.53;4.10;;;11.40;69.10;;;11.56;50.17;94400.47;5086464;28;20454;-57
2023/04/16 04:12:19;;;;;;;7.87;4.53;;;11.40;69.10;;;11.58;50.46;94405.59;5081818;28;20528;-59
2023/04/16 04:14:47;;;;;;;8.50;4.30;;;11.40;69.60;;;11.57;50.29;94399.50;5092587;28;20474;-60
2023/04/16 04:17:14;;;;;;;4.37;3.60;;;11.50;69.70;;;11.60;50.27;94404.44;5087114;28;20529;-59
2023/04/16 04:19:42;;;;;;;5.40;3.47;;;11.50;69.40;;;11.62;50.13;94414.84;5090978;28;20457;-59
2023/04/16 04:22:09;;;;;;;5.67;3.57;;;11.50;69.20;;;11.64;49.93;94403.13;5085717;28;20503;-60
2023/04/16 04:24:36;;;;;;;6.00;3.90;;;11.50;69.20;;;11.65;49.95;94417.16;5093641;28;20451;-59
2023/04/16 04:27:04;;;;;;;9.33;3.93;;;11.50;69.10;;;11.67;49.71;94412.53;5098050;28;20473;-59
2023/04/16 04:29:31;;;;;;;20.57;5.07;;;11.50;69.20;;;11.68;49.86;94422.09;5091231;28;20471;-58
2023/04/16 04:32:00;;;;;;;8.90;4.60;;;11.50;69.20;;;11.71;49.77;94418.31;5091835;28;20508;-59
2023/04/16 04:34:27;;;;;;;10.03;3.90;;;11.60;69.10;;;11.71;49.76;94419.16;5096109;28;20529;-58
2023/04/16 04:36:55;;;;;;;6.23;3.70;;;11.60;69.30;;;11.73;49.90;94425.09;5090324;28;20495;-59
2023/04/16 04:39:22;;;;;;;6.10;3.20;;;11.60;69.30;;;11.74;49.98;94418.00;5095107;28;20472;-59
2023/04/16 04:41:49;;;;;;;10.57;3.70;;;11.60;69.30;;;11.75;49.83;94425.75;5096562;28;20530;-60
2023/04/16 04:44:17;;;;;;;3.50;3.20;;;11.60;69.10;;;11.75;49.79;94425.75;5089406;28;20472;-57
2023/04/16 04:46:44;;;;;;;7.77;3.27;;;11.60;69.30;;;11.75;50.06;94431.00;5092179;28;21073;-59
2023/04/16 04:49:13;;;;;;;7.10;3.20;;;11.60;69.70;;;11.76;49.79;94430.03;5086238;28;20462;-60
2023/04/16 04:51:40;;;;;;;6.07;3.77;;;11.60;69.30;;;11.77;50.01;94434.34;5089929;28;20497;-58
2023/04/16 04:54:08;;;;;;;7.93;4.30;;;11.60;69.30;;;11.77;49.96;94431.69;5092054;28;20911;-60
2023/04/16 04:56:35;;;;;;;5.50;3.53;;;11.60;69.60;;;11.78;50.04;94430.69;5089242;28;20493;-60
2023/04/16 04:59:02;;;;;;;7.20;4.27;;;11.60;69.70;;;11.77;50.06;94434.34;5091176;28;20468;-60
2023/04/16 05:01:30;;;;;;;5.27;3.13;;;11.60;69.60;;;11.77;50.25;94428.22;5087797;28;21071;-60
2023/04/16 05:03:57;;;;;;;6.90;3.10;;;11.60;69.90;;;11.79;49.85;94429.72;5089716;28;20457;-61
2023/04/16 05:06:26;;;;;;;11.97;4.60;;;11.60;70.00;;;11.79;50.25;94431.53;5087643;28;20997;-59
2023/04/16 05:08:53;;;;;;;10.07;4.87;;;11.60;70.20;;;11.80;50.48;94426.13;5087692;28;20465;-59
2023/04/16 05:11:20;;;;;;;7.63;4.97;;;11.70;70.90;;;11.81;50.57;94435.66;5091245;28;20446;-59
2023/04/16 05:13:47;;;;;;;9.97;4.87;;;11.70;71.00;;;11.83;50.64;94430.22;5092712;28;20470;-60
2023/04/16 05:16:15;;;;;;;4.53;3.83;;;11.70;71.00;;;11.84;50.29;94431.88;5095101;28;20500;-58
2023/04/16 05:18:42;;;;;;;6.90;3.30;;;11.70;71.00;;;11.84;50.48;94435.31;5090898;28;20469;-59
2023/04/16 05:21:10;;;;;;;7.90;2.87;;;11.70;71.00;;;11.86;50.42;94437.00;5090748;28;20461;-56
2023/04/16 05:23:38;;;;;;;2.90;2.50;;;11.70;71.00;;;11.86;50.73;94437.00;5090270;28;20455;-58
2023/04/16 05:26:08;;;;;;;4.90;2.60;;;11.70;71.00;;;11.87;50.29;94436.00;5091603;28;20969;-60
2023/04/16 05:28:35;;;;;;;6.40;2.97;;;11.70;71.10;;;11.89;50.65;94441.94;5084766;28;20477;-58
2023/04/16 05:31:03;;;;;;;14.43;3.00;;;11.70;71.40;;;11.90;50.81;94443.56;5094476;28;20455;-58
2023/04/16 05:33:30;;;;;;;6.60;3.70;;;11.70;71.80;;;11.93;50.64;94430.13;5094654;28;20479;-61
2023/04/16 05:35:58;;;;;;;5.03;2.90;;;11.80;71.80;;;11.98;50.74;94433.13;5096604;28;20450;-58
2023/04/16 05:38:25;;;;;;;6.43;2.90;;;11.80;72.00;;;12.02;50.62;94432.66;5088687;28;20525;-57
2023/04/16 05:40:54;;;;;;;8.37;2.80;;;11.80;72.00;;;12.07;50.64;94423.41;5085415;28;20466;-59
2023/04/16 05:43:21;;;;;;;4.43;2.50;;;11.90;71.60;;;12.11;50.40;94427.38;5089017;28;21074;-58
2023/04/16 05:45:48;;;;;;;9.23;3.30;;;11.90;71.20;;;12.13;50.23;94426.25;5086155;28;20953;-58
2023/04/16 05:48:16;;;;;;;2.77;2.40;;;12.00;71.30;;;12.17;50.23;94435.47;5092557;28;21067;-63
2023/04/16 05:50:43;;;;;;;5.73;2.93;;;12.00;71.20;;;12.18;49.84;94434.50;5089278;28;20466;-59
2023/04/16 05:53:12;;;;;;;9.93;3.03;;;12.00;70.30;;;12.17;49.61;94427.56;5096847;28;20477;-57
2023/04/16 05:55:40;;;;;;;8.07;3.63;;;12.00;70.20;;;12.20;49.49;94443.06;5087861;28;20446;-58
2023/04/16 05:58:08;;;;;;;4.03;2.83;;;12.00;69.80;;;12.26;49.38;94430.25;5089420;28;20496;-58
2023/04/16 06:00:36;;;;;;;6.87;2.80;;;12.10;69.80;;;12.33;49.21;94428.59;5089260;28;20514;-60
2023/04/16 06:03:03;;;;;;;3.53;2.90;;;12.10;69.80;;;12.40;49.24;94432.25;5091807;28;20480;-59
2023/04/16 06:05:31;;;;;;;4.77;3.30;;;12.20;69.50;;;12.46;49.14;94434.22;5092255;28;21401;-60
2023/04/16 06:07:58;;;;;;;12.30;3.10;;;12.30;69.50;;;12.52;49.04;94430.94;5091476;28;20821;-59
2023/04/16 06:10:25;;;;;;;7.53;2.67;;;12.40;69.60;;;12.61;48.89;94430.94;5083820;28;20935;-58
2023/04/16 06:12:53;;;;;;;4.73;2.53;;;12.40;69.60;;;12.70;48.78;94437.88;5087733;28;20473;-58
2023/04/16 06:15:21;;;;;;;6.63;3.40;;;12.50;69.50;;;12.78;48.92;94432.63;5090210;28;20837;-58
2023/04/16 06:17:49;;;;;;;7.47;3.60;;;12.60;69.30;;;12.85;48.55;94433.59;5087006;28;20489;-60
2023/04/16 06:20:17;;;;;;;10.30;4.17;;;12.60;69.20;;;12.94;48.58;94437.09;5095500;28;20480;-60
2023/04/16 06:22:44;;;;;;;5.23;3.00;;;12.70;69.10;;;13.04;48.49;94436.91;5086566;28;20574;-60
2023/04/16 06:25:11;;;;;;;3.47;3.17;;;12.80;69.30;;;13.15;48.01;94433.94;5097039;28;20441;-59
2023/04/16 06:27:38;;;;;;;5.00;2.73;;;12.90;68.70;;;13.27;48.11;94437.06;5083305;28;20478;-61
2023/04/16 06:30:11;;;;;;;3.37;2.73;;;13.00;68.90;;;13.40;48.19;94426.84;5078409;28;21030;-60
2023/04/16 06:32:40;;;;;;;6.00;3.30;;;13.10;68.60;;;13.54;48.05;94425.34;5073236;28;20493;-59
2023/04/16 06:35:08;;;;;;;7.00;3.37;;;13.30;68.40;;;13.69;47.60;94429.91;5081997;28;20458;-60
2023/04/16 06:37:36;;;;;;;7.40;3.53;;;13.40;68.00;;;13.80;47.31;94429.53;5081659;28;20484;-60
2023/04/16 06:40:04;;;;;;;5.57;3.57;;;13.50;67.60;;;13.88;47.32;94424.25;5090520;28;20580;-61
2023/04/16 06:42:31;;;;;;;9.70;3.43;;;13.60;67.40;;;13.98;47.54;94422.19;5076432;28;20511;-60
2023/04/16 06:44:59;;;;;;;6.83;4.43;;;13.80;67.60;;;14.11;47.15;94419.00;5080620;28;20469;-61
2023/04/16 06:47:26;;;;;;;5.63;3.60;;;13.90;67.40;;;14.26;47.16;94424.38;5091321;28;20683;-59
2023/04/16 06:49:56;;;;;;;7.07;3.20;;;14.00;67.10;;;14.44;46.77;94425.97;5086996;28;20542;-61
2023/04/16 06:52:23;;;;;;;13.53;4.90;;;14.10;67.00;;;14.60;46.49;94423.22;5088397;28;21037;-59
2023/04/16 06:54:50;;;;;;;6.87;4.43;;;14.30;66.70;;;14.75;46.50;94420.66;5081929;28;20487;-59
2023/04/16 06:57:18;;;;;;;8.60;3.50;;;14.40;66.10;;;14.90;46.30;94423.34;5082314;28;20494;-64
2023/04/16 06:59:45;;;;;;;6.83;4.40;;;14.60;66.80;;;15.12;46.79;94420.84;5083386;28;20455;-59
2023/04/16 07:02:13;;;;;;;8.97;3.53;;;14.80;67.40;;;15.36;45.86;94420.63;5075339;28;20481;-61
2023/04/16 07:04:40;;;;;;;8.47;4.77;;;15.00;66.00;;;15.55;45.49;94418.44;5081244;28;20830;-58
2023/04/16 07:07:09;;;;;;;4.30;3.43;;;15.20;65.50;;;15.70;45.15;94413.97;5075675;28;20473;-60
2023/04/16 07:09:36;;;;;;;6.10;3.37;;;15.40;64.70;;;15.74;45.09;94423.22;5077278;28;20462;-62
2023/04/16 07:12:04;;;;;;;6.23;3.40;;;15.50;64.40;;;15.81;44.82;94414.56;5076336;28;20497;-57
2023/04/16 07:14:31;;;;;;;9.90;4.57;;;15.50;63.80;;;15.85;44.81;94424.63;5077971;28;20541;-60
2023/04/16 07:16:58;;;;;;;5.10;3.17;;;15.60;63.70;;;15.85;44.63;94421.13;5076255;28;20496;-58
2023/04/16 07:19:29;;;;;;;4.60;3.37;;;15.60;63.40;;;15.85;44.70;94421.97;5083719;28;20537;-59
2023/04/16 07:21:56;;;;;;;7.50;3.50;;;15.60;63.50;;;15.86;44.69;94425.44;5085267;28;20466;-58
2023/04/16 07:24:25;;;;;;;5.10;2.90;;;15.60;63.30;;;15.91;44.77;94428.34;5085816;28;20454;-59
2023/04/16 07:26:52;;;;;;;6.63;4.03;;;15.60;63.50;;;16.01;44.92;94428.91;5084233;28;20468;-61
2023/04/16 07:29:20;;;;;;;4.00;3.60;;;15.70;63.70;;;16.14;44.90;94420.28;5084285;28;20856;-58
2023/04/16 07:31:47;;;;;;;4.87;3.63;;;15.80;63.90;;;16.27;44.61;94422.31;5088683;28;20512;-61
2023/04/16 07:34:14;;;;;;;6.60;3.07;;;15.90;63.50;;;16.38;44.33;94424.47;5088566;28;20453;-59
2023/04/16 07:36:42;;;;;;;8.10;4.80;;;16.10;63.00;;;16.41;44.16;94415.31;5089743;28;21120;-58
2023/04/16 07:39:10;;;;;;;15.53;4.27;;;16.10;62.60;;;16.41;44.11;94424.09;5091969;28;20490;-61
2023/04/16 07:41:39;;;;;;;6.27;4.13;;;16.10;62.50;;;16.43;44.10;94424.72;5092640;28;20474;-58
2023/04/16 07:44:07;;;;;;;22.47;4.77;;;16.20;62.70;;;16.42;44.43;94417.78;5081475;28;20488;-61
2023/04/16 07:46:34;;;;;;;11.43;5.17;;;16.20;62.70;;;16.51;44.62;94425.63;5093534;28;20547;-59
2023/04/16 07:49:01;;;;;;;4.30;3.40;;;16.20;63.80;;;16.64;44.55;94423.13;5086356;28;20486;-60
2023/04/16 07:51:29;;;;;;;9.50;5.07;;;16.30;62.80;;;16.75;44.09;94417.31;5093279;28;20898;-59
2023/04/16 07:53:56;;;;;;;9.67;4.20;;;16.40;62.70;;;16.88;44.04;94415.81;5084932;28;20447;-59
2023/04/16 07:56:23;;;;;;;16.87;5.07;;;16.60;62.40;;;17.04;43.96;94415.59;5086711;28;20452;-60
2023/04/16 07:58:52;;;;;;;23.37;5.10;;;16.70;62.60;;;17.21;44.17;94416.09;5091615;28;21047;-60
2023/04/16 08:01:19;;;;;;;15.30;4.00;;;16.90;63.40;;;17.41;43.92;94410.94;5088170;28;20837;-59
2023/04/16 08:03:47;;;;;;;15.07;4.93;;;17.10;62.70;;;17.54;43.70;94416.38;5085280;28;20454;-59
2023/04/16 08:06:14;;;;;;;7.03;4.20;;;17.20;62.20;;;17.70;43.57;94422.41;5094339;28;20450;-60
2023/04/16 08:08:42;;;;;;;9.33;4.90;;;17.40;61.80;;;17.86;43.50;94419.44;5090422;28;20491;-58
2023/04/16 08:11:09;;;;;;;12.10;4.93;;;17.60;61.60;;;18.04;42.70;94421.59;5084597;28;20504;-67
2023/04/16 08:13:36;;;;;;;7.70;4.20;;;17.70;61.00;;;18.12;42.10;94415.28;5087683;28;20461;-59
2023/04/16 08:16:06;;;;;;;8.10;4.80;;;17.90;60.20;;;18.28;42.58;94417.63;5093893;28;20486;-59
2023/04/16 08:18:33;;;;;;;5.30;4.80;;;18.00;60.10;;;18.58;41.94;94425.31;5091018;28;20488;-60
2023/04/16 08:21:01;;;;;;;8.27;4.93;;;18.30;60.40;;;18.93;41.45;94417.22;5094931;28;20456;-60
2023/04/16 08:23:28;;;;;;;7.27;5.27;;;18.70;59.70;;;19.15;41.20;94403.72;5093862;28;20465;-60
2023/04/16 08:25:55;;;;;;;16.97;6.30;;;19.00;59.10;;;19.40;40.77;94408.44;5086859;28;20462;-59
2023/04/16 08:28:23;;;;;;;13.47;5.87;;;19.30;58.50;;;19.72;40.79;94406.78;5092014;28;20522;-60
2023/04/16 08:30:50;;;;;;;5.93;4.03;;;19.60;58.60;;;20.08;40.80;94396.63;5089650;28;20923;-60
2023/04/16 08:33:19;;;;;;;4.67;4.27;;;19.90;57.90;;;20.29;40.10;94395.53;5092206;28;21013;-62
2023/04/16 08:35:46;;;;;;;7.90;4.53;;;20.20;57.10;;;20.25;39.18;94389.81;5088204;28;20451;-62
2023/04/16 08:38:13;;;;;;;8.87;4.43;;;20.10;56.10;;;20.09;39.16;94390.28;5096994;28;20496;-60
2023/04/16 08:40:41;;;;;;;8.00;4.60;;;20.00;55.40;;;19.98;39.40;94389.88;5086544;28;20453;-61
2023/04/16 08:43:12;;;;;;;6.80;4.33;;;19.80;55.60;;;19.88;39.15;94385.00;5094449;28;20997;-61
2023/04/16 08:45:39;;;;;;;13.27;4.30;;;19.70;56.10;;;19.76;39.66;94385.81;5088283;28;20452;-60
2023/04/16 08:48:07;;;;;;;5.70;4.00;;;19.60;56.20;;;19.71;40.29;94384.59;5096676;28;20483;-63
2023/04/16 08:50:36;;;;;;;7.70;3.47;;;19.50;56.90;;;19.73;40.21;94383.56;5096254;28;20453;-62
2023/04/16 08:53:06;;;;;;;12.83;4.30;;;19.40;56.80;;;19.74;40.09;94377.22;5091903;28;20469;-60
2023/04/16 08:55:37;;;;;;;7.00;3.50;;;19.40;56.60;;;19.79;40.02;94374.75;5086209;28;20549;-60
2023/04/16 08:58:08;;;;;;;10.13;3.90;;;19.50;56.70;;;19.86;39.63;94372.88;5094349;28;20585;-61
2023/04/16 09:00:36;;;;;;;4.73;3.20;;;19.50;56.00;;;19.89;39.64;94369.78;5087221;28;20447;-60
2023/04/16 09:03:03;;;;;;;3.87;2.50;;;19.50;55.60;;;19.93;39.59;94371.00;5090419;28;20476;-61
2023/04/16 09:05:30;;;;;;;5.20;2.93;;;19.60;56.10;;;19.98;39.16;94365.84;5090026;28;20463;-60
2023/04/16 09:07:59;;;;;;;9.10;3.07;;;19.60;55.80;;;19.98;38.85;94357.03;5092699;28;20481;-58
2023/04/16 09:10:27;;;;;;;8.57;3.73;;;19.60;55.20;;;19.94;39.37;94363.81;5089906;28;20449;-59
2023/04/16 09:12:55;;;;;;;11.13;3.13;;;19.60;55.60;;;19.87;38.98;94355.84;5088010;28;20921;-62
2023/04/16 09:15:24;;;;;;;8.20;3.20;;;19.60;55.40;;;19.77;39.06;94353.63;5093220;28;20472;-61
2023/04/16 09:17:51;;;;;;;5.27;3.10;;;19.50;55.00;;;19.66;38.90;94360.38;5081865;28;20486;-61
2023/04/16 09:20:19;;;;;;;6.03;2.90;;;19.40;54.90;;;19.59;39.11;94374.75;5085979;28;20457;-60
2023/04/16 09:22:47;;;;;;;10.90;2.87;;;19.30;55.00;;;19.50;38.94;94371.50;5093510;28;20458;-59
2023/04/16 09:25:16;;;;;;;3.33;2.77;;;19.20;54.50;;;19.42;39.44;94369.03;5092429;28;20454;-59
2023/04/16 09:27:43;;;;;;;8.47;2.70;;;19.10;55.00;;;19.30;39.36;94361.69;5086697;28;20474;-58
2023/04/16 09:30:21;;;;;;;6.97;2.40;;;19.00;55.00;;;19.20;38.98;94366.59;5095649;28;20449;-61
2023/04/16 09:32:49;;;;;;;7.00;3.20;;;18.90;55.10;;;19.12;39.59;94362.28;5079769;28;20479;-60
2023/04/16 09:35:18;;;;;;;7.93;3.43;;;18.80;55.10;;;19.07;39.29;94358.59;5086064;28;20880;-58
2023/04/16 09:37:55;;;;;;;6.53;3.17;;;18.70;55.00;;;19.06;38.80;94359.63;5085609;28;20507;-61
2023/04/16 09:40:29;;;;;;;6.67;3.90;;;18.70;54.60;;;19.02;39.40;94361.88;5083906;28;20449;-62
2023/04/16 09:42:59;;;;;;;8.17;2.80;;;18.70;54.90;;;19.01;39.11;94364.72;5084603;28;20550;-61
2023/04/16 09:45:28;;;;;;;2.50;2.20;;;18.70;54.90;;;18.92;38.71;94364.94;5088013;28;20510;-60
2023/04/16 09:47:56;;;;;;;2.40;1.77;;;18.60;54.70;;;18.83;38.30;94358.13;5088824;28;21070;-61
2023/04/16 09:50:26;;;;;;;9.63;2.20;;;18.50;54.10;;;18.83;38.73;94362.66;5092812;28;21005;-61
2023/04/16 09:52:53;;;;;;;9.73;2.50;;;18.50;54.40;;;18.84;39.08;94350.97;5090951;28;21012;-59
2023/04/16 09:55:26;;;;;;;3.30;2.23;;;18.50;54.20;;;18.94;38.59;94357.56;5091270;28;20453;-61
2023/04/16 09:57:59;;;;;;;2.47;1.27;;;18.60;54.10;;;19.13;38.84;94353.28;5087798;28;20500;-60
2023/04/16 10:00:27;;;;;;;3.27;1.73;;;18.70;54.60;;;19.44;38.60;94346.47;5088139;28;20476;-60
2023/04/16 10:03:04;;;;;;;9.17;1.97;;;19.00;54.70;;;19.74;38.31;94339.84;5090150;28;20470;-61
2023/04/16 10:05:32;;;;;;;7.17;1.93;;;19.20;53.90;;;19.95;37.35;94347.59;5089185;28;20454;-59
2023/04/16 10:08:00;;;;;;;2.60;1.40;;;19.50;53.10;;;20.05;37.09;94342.63;5091847;28;20469;-63
2023/04/16 10:10:29;;;;;;;5.87;2.23;;;19.60;52.70;;;20.06;36.87;94338.94;5083151;28;20443;-59
2023/04/16 10:12:57;;;;;;;2.47;1.73;;;19.70;52.50;;;20.02;37.28;94337.72;5090272;28;21010;-63
2023/04/16 10:15:24;;;;;;;1.63;1.53;;;19.70;52.50;;;19.94;36.81;94340.63;5089872;28;20509;-61
2023/04/16 10:17:52;;;;;;;3.10;1.80;;;19.60;51.50;;;19.89;36.27;94335.09;5093088;28;20476;-62
2023/04/16 10:20:19;;;;;;;6.27;1.27;;;19.60;51.50;;;19.85;36.73;94333.88;5091300;28;20452;-60